Time;durP1;ratioP1;P1;durP2;ratioP2;P2;SDS_P1;SDS_P2;PMS_P1;PMS_P2;Temp;Humidity;BMP_temperature;BMP_pressure;BME280_temperature;BME280_humidity;BME280_pressure;Samples;Min_cycle;Max_cycle;Signal;HPM_P1;HPM_P2
2022/12/22 03:27:24;;;;;;;1.50;0.70;;;11.50;61.50;;;;;;20521;6844;308298;-75
2022/12/22 03:29:50;;;;;;;1.47;0.77;;;11.50;61.50;;;;;;20742;6844;117373;-75
2022/12/22 03:32:15;;;;;;;0.97;0.60;;;11.50;61.90;;;;;;20760;6842;119778;-75
2022/12/22 03:34:43;;;;;;;0.75;0.50;;;11.10;63.20;;;;;;20757;6843;117051;-75
2022/12/22 03:37:09;;;;;;;0.43;0.43;;;11.00;63.10;;;;;;20735;6843;118678;-75
2022/12/22 03:39:34;;;;;;;0.77;0.77;;;10.90;63.70;;;;;;20750;6843;119365;-75
2022/12/22 03:47:32;;;;;;;0.90;0.70;;;10.90;64.20;;;;;;20535;6843;305904;-74
2022/12/22 03:49:58;;;;;;;1.25;0.80;;;11.30;62.90;;;;;;20543;6843;307325;-75
2022/12/22 03:52:25;;;;;;;0.70;0.60;;;11.60;61.90;;;;;;20536;6843;307147;-74
2022/12/22 03:54:51;;;;;;;2.17;0.80;;;12.00;60.40;;;;;;20541;6843;306594;-75
2022/12/22 03:57:18;;;;;;;0.50;0.50;;;12.00;60.40;;;;;;20744;6843;117234;-76
2022/12/22 03:59:44;;;;;;;0.50;0.50;;;11.90;60.60;;;;;;20755;6843;118007;-75
2022/12/22 04:02:09;;;;;;;0.40;0.40;;;11.60;61.50;;;;;;20765;6843;117528;-75
2022/12/22 04:04:35;;;;;;;0.60;0.50;;;11.30;62.30;;;;;;20750;6843;119709;-75
2022/12/22 04:07:00;;;;;;;1.00;0.60;;;11.20;63.10;;;;;;20738;6843;118707;-76
2022/12/22 04:09:28;;;;;;;1.53;0.70;;;11.00;63.60;;;;;;20539;6844;278761;-75
2022/12/22 04:14:39;;;;;;;1.10;0.80;;;11.60;61.80;;;;;;20539;6844;309324;-75
2022/12/22 04:17:04;;;;;;;1.00;0.70;;;11.90;60.50;;;;;;20529;6844;309226;-76
2022/12/22 04:19:30;;;;;;;0.80;0.80;;;12.00;59.90;;;;;;20757;6844;118123;-80
2022/12/22 04:21:56;;;;;;;0.80;0.50;;;12.00;59.90;;;;;;20741;6844;117603;-75
2022/12/22 04:24:23;;;;;;;0.40;0.37;;;11.80;60.60;;;;;;20743;6844;118036;-75
2022/12/22 04:26:49;;;;;;;3.37;0.70;;;11.30;61.90;;;;;;20760;6844;118376;-76
2022/12/22 04:29:15;;;;;;;2.63;0.90;;;11.30;61.90;;;;;;20732;6844;117416;-75
2022/12/22 04:31:41;;;;;;;1.73;0.80;;;11.40;61.70;;;;;;20541;6844;278046;-74
2022/12/22 04:34:07;;;;;;;1.67;0.80;;;11.40;61.70;;;;;;20537;6844;308280;-73
2022/12/22 04:36:32;;;;;;;1.35;0.80;;;11.70;60.50;;;;;;20540;6844;304974;-71
2022/12/22 04:38:58;;;;;;;0.98;0.85;;;12.00;59.40;;;;;;20753;6844;123014;-73
2022/12/22 04:41:23;;;;;;;2.13;1.03;;;12.00;59.60;;;;;;20619;6844;117566;-71
2022/12/22 04:43:49;;;;;;;2.60;0.93;;;11.70;60.00;;;;;;20532;6842;336193;-71
2022/12/22 04:46:14;;;;;;;2.93;1.00;;;11.80;60.20;;;;;;20543;6843;277724;-71
2022/12/22 04:48:40;;;;;;;1.77;1.20;;;12.10;60.00;;;;;;20536;6843;278524;-70
2022/12/22 04:51:06;;;;;;;1.27;0.87;;;12.30;59.70;;;;;;20734;6843;117939;-71
2022/12/22 04:53:31;;;;;;;1.23;0.77;;;12.20;59.80;;;;;;20749;6843;120165;-70
2022/12/22 04:56:00;;;;;;;1.33;0.90;;;11.90;60.30;;;;;;20537;6843;278222;-71
2022/12/22 04:58:25;;;;;;;1.73;0.67;;;11.90;60.50;;;;;;20683;6843;117093;-72
2022/12/22 05:00:51;;;;;;;3.03;0.80;;;11.80;60.70;;;;;;20722;6843;117933;-71
2022/12/22 05:03:16;;;;;;;5.00;0.90;;;11.60;61.30;;;;;;20730;6843;117449;-72
2022/12/22 05:05:42;;;;;;;2.73;0.80;;;11.40;62.00;;;;;;20727;6843;117726;-73
2022/12/22 05:08:07;;;;;;;1.50;0.73;;;11.20;62.50;;;;;;20741;6843;118019;-73
2022/12/22 05:10:33;;;;;;;4.07;1.37;;;11.10;63.20;;;;;;20744;6843;117119;-72
2022/12/22 05:12:59;;;;;;;4.10;1.00;;;10.90;63.70;;;;;;20735;6843;118221;-73
2022/12/22 05:15:24;;;;;;;4.07;1.20;;;10.90;64.30;;;;;;20542;6843;277729;-72
2022/12/22 05:17:50;;;;;;;4.47;1.25;;;11.00;64.90;;;;;;20537;6843;307197;-72
2022/12/22 05:20:16;;;;;;;2.53;1.80;;;11.80;63.20;;;;;;20535;6844;323221;-72
2022/12/22 05:22:42;;;;;;;3.80;1.63;;;12.10;62.40;;;;;;20542;6844;302583;-71
2022/12/22 05:25:08;;;;;;;5.27;1.67;;;12.00;62.20;;;;;;20526;6844;307987;-72
2022/12/22 05:27:33;;;;;;;3.83;1.53;;;12.30;61.30;;;;;;20764;6844;117166;-71
2022/12/22 05:29:59;;;;;;;1.98;1.20;;;12.20;61.50;;;;;;20540;6844;322607;-72
2022/12/22 05:32:25;;;;;;;3.77;1.43;;;12.20;61.50;;;;;;20760;6844;118699;-71
2022/12/22 05:34:51;;;;;;;1.87;1.20;;;11.80;62.50;;;;;;20754;6844;117905;-71
2022/12/22 05:37:16;;;;;;;1.83;0.87;;;11.80;62.50;;;;;;20735;6844;121262;-72
2022/12/22 05:39:42;;;;;;;5.80;1.63;;;11.60;63.30;;;;;;20759;6844;118092;-72
2022/12/22 05:42:08;;;;;;;2.80;1.13;;;11.40;63.90;;;;;;20752;6844;117070;-71
2022/12/22 05:44:33;;;;;;;3.27;2.97;;;11.20;64.40;;;;;;20538;6844;308028;-71
2022/12/22 05:46:59;;;;;;;5.40;1.63;;;11.40;63.50;;;;;;20522;6844;277860;-72
2022/12/22 05:49:25;;;;;;;3.17;1.42;;;12.10;61.50;;;;;;20540;6844;336254;-72
2022/12/22 05:51:53;;;;;;;3.15;1.70;;;12.10;61.50;;;;;;20541;6844;336580;-72
2022/12/22 05:54:16;;;;;;;2.93;1.80;;;12.30;60.30;;;;;;20536;6842;323622;-73
2022/12/22 05:56:42;;;;;;;2.83;1.37;;;12.50;59.50;;;;;;20760;6843;117473;-71
2022/12/22 05:59:07;;;;;;;4.13;1.60;;;12.30;59.80;;;;;;20751;6843;118169;-72
2022/12/22 06:01:33;;;;;;;3.40;1.60;;;12.00;60.60;;;;;;20754;6843;122280;-71
2022/12/22 06:03:58;;;;;;;1.55;1.17;;;11.70;61.40;;;;;;20756;6843;117074;-73
2022/12/22 06:06:24;;;;;;;3.13;1.30;;;11.50;62.10;;;;;;20551;6843;278040;-73
2022/12/22 06:08:50;;;;;;;3.47;1.60;;;11.60;61.20;;;;;;20541;6843;307523;-73
2022/12/22 06:11:17;;;;;;;5.03;1.90;;;11.90;60.00;;;;;;20519;6843;308075;-72
2022/12/22 06:13:41;;;;;;;3.08;1.40;;;12.20;59.00;;;;;;20740;6843;120684;-72
2022/12/22 06:16:06;;;;;;;3.33;1.70;;;12.10;59.10;;;;;;20538;6843;306745;-72
2022/12/22 06:18:32;;;;;;;5.30;1.60;;;12.10;58.90;;;;;;20755;6843;117102;-72
2022/12/22 06:20:58;;;;;;;4.00;1.67;;;12.00;59.10;;;;;;20532;6843;308688;-72
2022/12/22 06:23:24;;;;;;;3.47;2.20;;;12.00;59.10;;;;;;20422;6843;278068;-72
2022/12/22 06:25:56;;;;;;;3.72;1.60;;;12.20;58.40;;;;;;20755;6843;118332;-72
2022/12/22 06:28:22;;;;;;;4.33;1.40;;;12.20;58.70;;;;;;20738;6843;117098;-72
2022/12/22 06:30:48;;;;;;;4.32;2.00;;;11.90;59.10;;;;;;20532;6843;280070;-69
2022/12/22 06:33:17;;;;;;;3.27;1.40;;;11.80;59.60;;;;;;20728;6844;117209;-72
2022/12/22 06:35:42;;;;;;;4.35;1.87;;;11.80;59.30;;;;;;20539;6844;277733;-73
2022/12/22 06:38:08;;;;;;;5.50;2.13;;;11.90;59.10;;;;;;20541;6844;307333;-72
2022/12/22 06:40:34;;;;;;;8.07;1.90;;;12.10;58.50;;;;;;20536;6844;283349;-72
2022/12/22 06:43:09;;;;;;;4.63;2.00;;;12.30;57.90;;;;;;20729;6844;117151;-73
2022/12/22 06:45:36;;;;;;;3.70;2.20;;;12.10;58.10;;;;;;20525;6844;306796;-73
2022/12/22 06:48:01;;;;;;;6.03;1.80;;;12.10;58.10;;;;;;20530;6844;336635;-74
2022/12/22 06:50:28;;;;;;;4.93;2.10;;;12.50;57.30;;;;;;20542;6844;277753;-73
2022/12/22 06:52:53;;;;;;;5.10;2.03;;;12.40;57.20;;;;;;20523;6844;299408;-73
2022/12/22 06:55:19;;;;;;;7.33;2.73;;;12.60;56.80;;;;;;20514;6844;310469;-72
2022/12/22 06:57:45;;;;;;;3.17;1.70;;;12.70;56.50;;;;;;20541;6844;336661;-75
2022/12/22 07:00:11;;;;;;;4.07;1.93;;;12.80;56.20;;;;;;20742;6844;117491;-72
2022/12/22 07:02:37;;;;;;;6.73;1.93;;;12.50;56.60;;;;;;20743;6844;120263;-71
2022/12/22 07:05:02;;;;;;;8.52;1.73;;;12.20;57.50;;;;;;20729;6844;129464;-71
2022/12/22 07:07:28;;;;;;;4.90;2.00;;;11.90;58.40;;;;;;20543;6842;291019;-71
2022/12/22 07:09:54;;;;;;;3.93;2.00;;;11.90;57.90;;;;;;20528;6843;308397;-72
2022/12/22 07:12:24;;;;;;;6.37;1.48;;;12.20;57.00;;;;;;20557;6843;116992;-71
2022/12/22 07:14:49;;;;;;;3.37;1.57;;;12.10;57.20;;;;;;20685;6843;118235;-72
2022/12/22 07:17:15;;;;;;;6.73;2.27;;;11.80;57.60;;;;;;20487;6843;307757;-70
2022/12/22 07:19:41;;;;;;;5.07;1.80;;;11.80;57.00;;;;;;20753;6843;117492;-70
2022/12/22 07:22:06;;;;;;;5.40;2.10;;;11.70;57.30;;;;;;20526;6843;337124;-69
2022/12/22 07:24:32;;;;;;;6.57;1.90;;;11.70;56.50;;;;;;20759;6843;117008;-70
2022/12/22 07:26:57;;;;;;;4.77;2.13;;;11.70;57.00;;;;;;20757;6843;118678;-70
2022/12/22 07:29:24;;;;;;;6.43;2.00;;;11.60;57.00;;;;;;20502;6843;337637;-69
2022/12/22 07:31:51;;;;;;;4.33;2.33;;;11.60;57.60;;;;;;20743;6843;119354;-70
2022/12/22 07:34:17;;;;;;;6.70;2.20;;;11.60;57.20;;;;;;20536;6843;307325;-70
2022/12/22 07:36:42;;;;;;;5.00;2.42;;;11.80;56.60;;;;;;20537;6843;337009;-69
2022/12/22 07:39:08;;;;;;;6.13;2.20;;;12.00;56.20;;;;;;20510;6843;309946;-69
2022/12/22 07:44:19;;;;;;;4.70;2.10;;;12.20;55.90;;;;;;20737;6844;118668;-70
2022/12/22 07:46:45;;;;;;;5.85;2.33;;;11.90;56.40;;;;;;20531;6844;281524;-71
2022/12/22 07:51:57;;;;;;;5.97;2.12;;;12.40;55.00;;;;;;20532;6844;277653;-72
2022/12/22 07:54:23;;;;;;;5.00;1.90;;;12.40;55.00;;;;;;20527;6844;280258;-72
2022/12/22 07:56:49;;;;;;;6.27;3.37;;;12.40;55.10;;;;;;20749;6844;119673;-71
2022/12/22 07:59:16;;;;;;;7.27;2.80;;;12.40;55.00;;;;;;20723;6844;147491;-71
2022/12/22 08:01:41;;;;;;;5.87;2.87;;;12.10;55.80;;;;;;20751;6844;117186;-71
2022/12/22 08:04:07;;;;;;;6.40;2.50;;;11.80;56.60;;;;;;20538;6844;309640;-72
2022/12/22 08:06:33;;;;;;;6.03;2.33;;;11.80;55.90;;;;;;20529;6844;307824;-70
2022/12/22 08:08:58;;;;;;;4.33;2.00;;;12.20;55.40;;;;;;20747;6844;117198;-74
2022/12/22 08:11:24;;;;;;;4.40;2.13;;;12.10;55.70;;;;;;20398;6844;307270;-74
2022/12/22 08:13:49;;;;;;;5.05;2.05;;;12.20;55.70;;;;;;20745;6844;117546;-71
2022/12/22 08:16:15;;;;;;;4.72;2.10;;;12.10;56.10;;;;;;20535;6844;306481;-73
2022/12/22 08:18:40;;;;;;;4.53;1.80;;;12.10;56.20;;;;;;20748;6842;117008;-74
2022/12/22 08:21:07;;;;;;;8.57;4.60;;;12.00;56.50;;;;;;20519;6843;278210;-74
2022/12/22 08:23:34;;;;;;;6.00;2.30;;;12.20;56.60;;;;;;20536;6843;279283;-73
2022/12/22 08:26:06;;;;;;;4.50;2.17;;;12.20;56.60;;;;;;20537;6843;278103;-72
2022/12/22 08:28:33;;;;;;;7.37;2.43;;;12.40;56.60;;;;;;20402;6843;307116;-71
2022/12/22 08:30:58;;;;;;;6.03;1.97;;;12.50;57.20;;;;;;20734;6843;118169;-74
2022/12/22 08:33:25;;;;;;;4.50;1.90;;;12.20;57.30;;;;;;20532;6843;308622;-71
2022/12/22 08:35:52;;;;;;;3.27;1.87;;;12.20;57.30;;;;;;20535;6843;307320;-74
2022/12/22 08:38:17;;;;;;;5.20;2.17;;;12.40;57.40;;;;;;20506;6843;310176;-74
2022/12/22 08:40:43;;;;;;;3.77;1.77;;;12.50;57.10;;;;;;20527;6843;280201;-74
2022/12/22 08:43:10;;;;;;;5.00;1.87;;;12.70;57.20;;;;;;20510;6843;310406;-75
2022/12/22 08:45:37;;;;;;;3.43;1.60;;;12.70;56.30;;;;;;20737;6843;117337;-74
2022/12/22 08:48:03;;;;;;;2.95;1.50;;;12.40;57.40;;;;;;20530;6843;289854;-77
2022/12/22 08:50:30;;;;;;;3.17;1.70;;;12.50;56.60;;;;;;20505;6843;277333;-74
2022/12/22 08:53:02;;;;;;;4.73;1.53;;;12.40;56.80;;;;;;20692;6843;116990;-74
2022/12/22 08:55:28;;;;;;;1.93;1.10;;;12.30;56.70;;;;;;20735;6844;117904;-75
2022/12/22 08:57:53;;;;;;;2.40;1.30;;;12.00;57.50;;;;;;20532;6844;308930;-73
2022/12/22 09:00:19;;;;;;;2.50;1.10;;;12.00;57.20;;;;;;20739;6844;118088;-73
2022/12/22 09:02:45;;;;;;;4.07;1.23;;;11.90;57.50;;;;;;20737;6844;117462;-74
2022/12/22 09:05:12;;;;;;;3.35;1.60;;;11.70;58.10;;;;;;20510;6844;335932;-74
2022/12/22 09:07:37;;;;;;;1.67;0.93;;;11.90;58.00;;;;;;20738;6844;117339;-75
2022/12/22 09:10:03;;;;;;;3.22;1.55;;;11.90;58.00;;;;;;20528;6844;308205;-73
2022/12/22 09:12:29;;;;;;;3.12;1.40;;;12.00;57.30;;;;;;20741;6844;118159;-73
2022/12/22 09:14:54;;;;;;;2.62;1.52;;;12.00;57.50;;;;;;20531;6844;278772;-71
2022/12/22 09:17:20;;;;;;;13.57;6.63;;;12.40;56.80;;;;;;20507;6844;309605;-73
2022/12/22 09:19:46;;;;;;;12.73;5.80;;;12.40;56.80;;;;;;20737;6844;117226;-74
2022/12/22 09:22:12;;;;;;;9.30;5.87;;;12.40;57.10;;;;;;20757;6844;117199;-74
2022/12/22 09:24:38;;;;;;;7.67;5.00;;;12.20;57.70;;;;;;20744;6844;117787;-75
2022/12/22 09:27:05;;;;;;;3.37;1.73;;;12.00;58.20;;;;;;20722;6844;144288;-75
2022/12/22 09:29:29;;;;;;;3.90;1.70;;;11.80;58.70;;;;;;20532;6842;307342;-73
2022/12/22 09:31:55;;;;;;;2.53;1.60;;;11.90;59.10;;;;;;20747;6843;117467;-74
2022/12/22 09:34:21;;;;;;;4.60;2.03;;;11.90;59.10;;;;;;20533;6843;307711;-74
2022/12/22 09:36:46;;;;;;;6.30;1.90;;;12.00;59.40;;;;;;20530;6843;308758;-72
2022/12/22 09:39:12;;;;;;;5.07;2.10;;;12.20;59.50;;;;;;20519;6843;279956;-72
2022/12/22 09:41:48;;;;;;;4.60;1.60;;;12.40;59.30;;;;;;20743;6843;117200;-71
2022/12/22 09:44:23;;;;;;;4.90;2.10;;;12.30;59.50;;;;;;20740;6843;118729;-72
2022/12/22 09:46:48;;;;;;;5.13;1.70;;;11.90;60.20;;;;;;20731;6843;116998;-75
2022/12/22 09:49:14;;;;;;;3.10;1.40;;;11.70;61.00;;;;;;20725;6843;117238;-73
2022/12/22 09:51:39;;;;;;;6.47;2.10;;;11.50;61.70;;;;;;20521;6843;336535;-73
2022/12/22 09:54:05;;;;;;;5.03;2.00;;;11.60;62.40;;;;;;20524;6843;310362;-73
2022/12/22 09:56:31;;;;;;;4.60;2.07;;;11.90;61.90;;;;;;20528;6843;307194;-73
2022/12/22 09:58:57;;;;;;;3.62;1.70;;;12.20;61.30;;;;;;20696;6843;116987;-78
2022/12/22 10:01:22;;;;;;;5.37;2.03;;;12.10;61.20;;;;;;20462;6843;280534;-75
2022/12/22 10:03:47;;;;;;;4.18;1.73;;;12.20;61.20;;;;;;20513;6843;278305;-74
2022/12/22 10:06:13;;;;;;;5.45;1.80;;;12.30;60.70;;;;;;20669;6843;117190;-74
2022/12/22 10:08:39;;;;;;;6.77;2.30;;;12.20;60.80;;;;;;20496;6844;280405;-74
2022/12/22 10:11:04;;;;;;;5.07;1.53;;;12.20;61.30;;;;;;20712;6844;119959;-75
2022/12/22 10:13:31;;;;;;;3.97;1.50;;;12.10;61.40;;;;;;20750;6844;117753;-75
2022/12/22 10:15:57;;;;;;;6.03;2.00;;;11.80;62.10;;;;;;20534;6844;279918;-75
2022/12/22 10:18:25;;;;;;;5.62;2.15;;;11.90;62.20;;;;;;20542;6844;307609;-76
2022/12/22 10:21:02;;;;;;;4.57;2.27;;;12.20;61.40;;;;;;20526;6844;324620;-75
2022/12/22 10:23:26;;;;;;;10.03;2.30;;;12.40;60.80;;;;;;20526;6844;281324;-76
2022/12/22 10:25:54;;;;;;;8.02;2.35;;;12.60;60.10;;;;;;20520;6844;309588;-76
2022/12/22 10:28:27;;;;;;;5.00;1.70;;;12.70;59.50;;;;;;20742;6844;119425;-75
2022/12/22 10:31:16;;;;;;;3.97;2.00;;;12.20;60.80;;;;;;20711;6844;117001;-75
2022/12/22 10:33:42;;;;;;;6.40;2.20;;;12.20;60.80;;;;;;19789;6844;337930;-76
2022/12/22 10:36:08;;;;;;;3.15;1.50;;;12.20;61.10;;;;;;20740;6844;117026;-76
2022/12/22 10:38:34;;;;;;;6.33;1.80;;;12.20;61.10;;;;;;20754;6844;117625;-75
2022/12/22 10:41:13;;;;;;;4.37;1.47;;;12.00;61.80;;;;;;20670;6842;119062;-76
2022/12/22 10:43:48;;;;;;;4.33;1.80;;;11.80;62.30;;;;;;20665;6843;119273;-77
2022/12/22 10:46:15;;;;;;;5.03;1.87;;;11.60;62.80;;;;;;19927;6843;307718;-75
2022/12/22 10:48:40;;;;;;;4.63;2.10;;;11.80;62.30;;;;;;20526;6843;278013;-76
2022/12/22 10:51:06;;;;;;;5.03;2.20;;;12.20;61.20;;;;;;20502;6843;307386;-76
2022/12/22 10:53:48;;;;;;;5.32;1.77;;;12.40;60.20;;;;;;20739;6843;117777;-75
2022/12/22 10:56:20;;;;;;;4.33;1.90;;;12.40;60.30;;;;;;20730;6843;117060;-77
2022/12/22 10:58:46;;;;;;;7.03;2.10;;;12.20;60.80;;;;;;20489;6843;307914;-75
2022/12/22 11:01:11;;;;;;;4.77;2.17;;;12.10;60.70;;;;;;20504;6843;280020;-75
2022/12/22 11:03:37;;;;;;;5.75;2.45;;;12.40;60.10;;;;;;20548;6843;277710;-74
2022/12/22 11:06:29;;;;;;;6.62;2.30;;;12.70;59.50;;;;;;20522;6843;308065;-73
2022/12/22 11:08:54;;;;;;;6.73;2.53;;;12.80;58.80;;;;;;20486;6843;280915;-75
2022/12/22 11:11:26;;;;;;;6.32;2.58;;;13.00;58.20;;;;;;20509;6843;307198;-72
2022/12/22 11:13:53;;;;;;;4.70;1.83;;;13.10;58.00;;;;;;20693;6843;117576;-73
2022/12/22 11:16:24;;;;;;;6.30;1.75;;;12.50;59.50;;;;;;20734;6843;117484;-78
2022/12/22 11:19:10;;;;;;;4.90;2.00;;;12.50;59.40;;;;;;20724;6844;117620;-73
2022/12/22 11:22:05;;;;;;;5.22;2.25;;;12.30;60.40;;;;;;19822;6844;307849;-72
2022/12/22 11:24:38;;;;;;;5.90;2.15;;;12.40;60.20;;;;;;20493;6844;306819;-75
2022/12/22 11:27:36;;;;;;;7.43;2.00;;;12.70;59.20;;;;;;20499;6844;309191;-75
2022/12/22 11:30:01;;;;;;;4.77;1.70;;;12.90;58.60;;;;;;20747;6844;121440;-71
2022/12/22 11:32:47;;;;;;;5.25;2.20;;;12.70;59.00;;;;;;20532;6844;339815;-72
2022/12/22 11:35:12;;;;;;;4.93;1.87;;;12.80;58.90;;;;;;20732;6844;117140;-71
2022/12/22 11:37:57;;;;;;;4.33;1.43;;;12.60;59.20;;;;;;20718;6844;117431;-72
2022/12/22 11:40:36;;;;;;;4.47;2.00;;;12.40;60.00;;;;;;19465;7202;323950;-72
2022/12/22 11:43:18;;;;;;;5.30;1.90;;;12.50;59.40;;;;;;19637;7204;119674;-73
2022/12/22 11:45:54;;;;;;;2.77;1.60;;;12.50;59.60;;;;;;19885;6857;119617;-72
2022/12/22 11:49:00;;;;;;;4.17;1.37;;;12.40;60.20;;;;;;20735;6848;117252;-72
2022/12/22 11:51:48;;;;;;;3.93;1.87;;;12.20;60.60;;;;;;20734;6848;118796;-73
2022/12/22 11:54:53;;;;;;;3.77;2.00;;;12.00;61.20;;;;;;20458;6862;310008;-76
2022/12/22 11:57:45;;;;;;;3.92;1.77;;;12.30;60.00;;;;;;19418;7214;326117;-76
2022/12/22 12:00:14;;;;;;;4.63;1.50;;;12.70;58.40;;;;;;19646;7211;119771;-74
2022/12/22 12:03:19;;;;;;;4.20;1.80;;;12.70;58.50;;;;;;19805;6862;279320;-75
2022/12/22 12:06:09;;;;;;;3.93;1.20;;;12.60;59.10;;;;;;20733;6847;117464;-74
2022/12/22 12:08:47;;;;;;;4.70;1.80;;;12.60;58.40;;;;;;20627;6862;117821;-73
2022/12/22 12:11:20;;;;;;;4.13;2.00;;;12.40;59.90;;;;;;20476;6852;282203;-73
2022/12/22 12:14:12;;;;;;;4.10;2.00;;;12.60;58.40;;;;;;20462;6862;278766;-73
2022/12/22 12:16:58;;;;;;;5.78;2.17;;;12.90;57.40;;;;;;20535;6843;306737;-74
2022/12/22 12:19:46;;;;;;;5.33;1.90;;;13.30;56.40;;;;;;20494;6843;277862;-73
2022/12/22 12:22:25;;;;;;;1.97;1.13;;;13.50;55.70;;;;;;20762;6843;117587;-76
2022/12/22 12:25:01;;;;;;;4.17;1.90;;;13.20;56.20;;;;;;20530;6843;306657;-77
2022/12/22 12:27:53;;;;;;;4.67;1.90;;;13.20;56.10;;;;;;20721;6843;117743;-77
2022/12/22 12:30:18;;;;;;;4.30;1.80;;;13.10;56.70;;;;;;20525;6844;320902;-76
2022/12/22 12:32:54;;;;;;;5.00;1.80;;;13.30;56.20;;;;;;20526;6844;308756;-74
2022/12/22 12:35:23;;;;;;;4.30;2.23;;;13.30;56.20;;;;;;20501;6844;310460;-77
2022/12/22 12:37:48;;;;;;;4.23;1.60;;;13.50;56.10;;;;;;20751;6844;118207;-75
2022/12/22 12:40:17;;;;;;;5.57;1.90;;;13.40;56.50;;;;;;20732;6844;120111;-74
2022/12/22 12:42:42;;;;;;;3.80;1.43;;;13.10;57.30;;;;;;20757;6844;117112;-74
2022/12/22 12:45:31;;;;;;;5.60;2.35;;;12.90;58.10;;;;;;20518;6844;307546;-74
2022/12/22 12:48:23;;;;;;;6.13;2.10;;;13.00;57.60;;;;;;20751;6844;117173;-76
2022/12/22 12:50:50;;;;;;;5.23;2.37;;;12.80;58.60;;;;;;20743;6844;118297;-76
2022/12/22 12:53:15;;;;;;;5.27;2.33;;;12.80;58.50;;;;;;20725;6844;117532;-77
2022/12/22 12:55:51;;;;;;;5.43;1.80;;;12.70;59.00;;;;;;20738;6844;120337;-75
2022/12/22 12:58:36;;;;;;;5.97;2.00;;;12.50;59.20;;;;;;20751;6844;117195;-74
2022/12/22 13:01:09;;;;;;;7.20;2.07;;;12.40;59.50;;;;;;20732;6844;118209;-74
2022/12/22 13:03:35;;;;;;;4.73;2.00;;;12.20;59.80;;;;;;20746;6842;117269;-74
2022/12/22 13:06:01;;;;;;;4.70;1.73;;;12.10;60.20;;;;;;20745;6843;117039;-74
2022/12/22 13:08:30;;;;;;;6.70;2.53;;;12.10;60.60;;;;;;20557;6843;338477;-76
2022/12/22 13:10:56;;;;;;;7.50;2.33;;;12.40;59.90;;;;;;20740;6843;117547;-75
2022/12/22 13:13:22;;;;;;;6.53;1.93;;;12.40;59.80;;;;;;20704;6843;119173;-74
2022/12/22 13:15:47;;;;;;;6.25;1.90;;;12.30;59.90;;;;;;20717;6843;117739;-74
2022/12/22 13:18:29;;;;;;;4.50;2.10;;;12.10;60.20;;;;;;20736;6843;117108;-73
2022/12/22 13:20:55;;;;;;;8.60;2.92;;;12.10;60.70;;;;;;20523;6843;279180;-75
2022/12/22 13:23:21;;;;;;;5.68;2.33;;;12.70;58.30;;;;;;20504;6843;281047;-75
2022/12/22 13:25:49;;;;;;;6.35;2.58;;;13.00;57.10;;;;;;20510;6843;311721;-74
2022/12/22 13:28:14;;;;;;;7.90;2.03;;;13.00;57.10;;;;;;20739;6843;117044;-76
2022/12/22 13:30:41;;;;;;;6.83;2.40;;;13.10;57.50;;;;;;20529;6843;302872;-74
2022/12/22 13:33:06;;;;;;;5.33;2.13;;;13.00;56.70;;;;;;20709;6843;117481;-74
2022/12/22 13:35:32;;;;;;;6.60;2.53;;;13.00;57.30;;;;;;20521;6843;307118;-74
2022/12/22 13:37:58;;;;;;;4.63;2.23;;;13.10;56.80;;;;;;20737;6843;116942;-74
2022/12/22 13:40:23;;;;;;;6.78;2.78;;;13.10;57.20;;;;;;20543;6843;278477;-75
2022/12/22 13:42:55;;;;;;;5.97;2.60;;;13.20;56.30;;;;;;20745;6844;117615;-74
2022/12/22 13:45:43;;;;;;;6.62;3.12;;;13.10;56.70;;;;;;20512;6844;307652;-74
2022/12/22 13:48:45;;;;;;;8.00;3.77;;;13.20;56.10;;;;;;20542;6844;302444;-73
2022/12/22 13:51:17;;;;;;;4.60;2.30;;;13.50;56.00;;;;;;20724;6844;120175;-74
2022/12/22 13:53:44;;;;;;;8.37;2.90;;;13.30;56.10;;;;;;20529;6844;310298;-73
2022/12/22 13:56:14;;;;;;;7.57;3.03;;;13.40;55.60;;;;;;20465;6844;308156;-73
2022/12/22 13:58:39;;;;;;;9.20;2.95;;;13.40;55.60;;;;;;20528;6844;308980;-71
2022/12/22 14:01:08;;;;;;;9.30;3.00;;;13.60;55.40;;;;;;20486;6844;336639;-72
2022/12/22 14:03:37;;;;;;;9.23;3.37;;;13.80;54.80;;;;;;20538;6844;307600;-76
2022/12/22 14:06:20;;;;;;;7.62;3.10;;;13.70;54.80;;;;;;20533;6844;307126;-73
2022/12/22 14:08:46;;;;;;;7.17;3.00;;;13.80;54.60;;;;;;20738;6844;117169;-77
2022/12/22 14:11:11;;;;;;;5.63;2.17;;;13.60;55.30;;;;;;20728;6844;117598;-72
2022/12/22 14:13:38;;;;;;;5.77;2.40;;;13.20;56.00;;;;;;20753;6844;120309;-78
2022/12/22 14:16:04;;;;;;;8.23;2.37;;;12.90;56.80;;;;;;20740;6842;117676;-72
2022/12/22 14:18:31;;;;;;;4.73;2.93;;;12.50;58.10;;;;;;20750;6843;117006;-73
2022/12/22 14:20:58;;;;;;;7.83;2.50;;;12.40;58.00;;;;;;20742;6843;117458;-78
2022/12/22 14:23:23;;;;;;;6.18;2.50;;;12.30;58.50;;;;;;20733;6843;117572;-79
2022/12/22 14:25:48;;;;;;;10.48;2.85;;;12.20;59.10;;;;;;20502;6843;309729;-73
2022/12/22 14:28:13;;;;;;;8.73;3.30;;;12.30;58.30;;;;;;20536;6843;278106;-75
2022/12/22 14:30:42;;;;;;;7.22;2.05;;;12.70;58.30;;;;;;20730;6843;117512;-71
2022/12/22 14:33:14;;;;;;;7.20;3.00;;;12.70;58.20;;;;;;20506;6843;300949;-74
2022/12/22 14:35:40;;;;;;;5.80;2.70;;;12.80;57.80;;;;;;20706;6843;119198;-76
2022/12/22 14:38:19;;;;;;;10.43;3.03;;;12.80;57.30;;;;;;20526;6843;307678;-72
2022/12/22 14:40:46;;;;;;;8.87;3.23;;;12.80;57.30;;;;;;20514;6843;306653;-72
2022/12/22 14:43:18;;;;;;;7.60;3.03;;;13.10;56.60;;;;;;20726;6843;117542;-74
2022/12/22 14:45:48;;;;;;;8.77;3.10;;;12.90;56.10;;;;;;20527;6843;308050;-77
2022/12/22 14:48:23;;;;;;;5.80;2.80;;;12.90;56.10;;;;;;20734;6843;120583;-75
2022/12/22 14:50:50;;;;;;;5.80;2.30;;;12.50;57.30;;;;;;20731;6843;117617;-80
2022/12/22 14:53:15;;;;;;;6.40;3.00;;;12.50;57.30;;;;;;20725;6844;120294;-74
2022/12/22 14:55:41;;;;;;;9.97;3.60;;;12.20;57.90;;;;;;20508;6844;277734;-80
2022/12/22 14:58:19;;;;;;;6.45;2.42;;;12.30;57.50;;;;;;20717;6844;119628;-78
2022/12/22 15:01:11;;;;;;;6.27;2.53;;;12.30;57.70;;;;;;20746;6844;117119;-73
2022/12/22 15:04:00;;;;;;;9.20;3.20;;;12.00;58.10;;;;;;20708;6734;305047;-72
2022/12/22 15:06:39;;;;;;;9.57;3.17;;;12.20;57.90;;;;;;20458;6837;279937;-73
2022/12/22 15:09:18;;;;;;;8.20;2.60;;;12.40;57.10;;;;;;20811;6763;117659;-73
2022/12/22 15:12:01;;;;;;;7.40;2.50;;;12.30;57.20;;;;;;20608;6763;302976;-71
2022/12/22 15:14:36;;;;;;;8.90;3.00;;;12.30;57.20;;;;;;20748;6768;117455;-72
2022/12/22 15:17:15;;;;;;;8.18;3.20;;;12.20;57.60;;;;;;20588;6765;294739;-72
2022/12/22 15:19:51;;;;;;;7.50;2.50;;;12.20;57.30;;;;;;20848;6761;119328;-72
2022/12/22 15:22:26;;;;;;;6.77;2.57;;;12.20;57.70;;;;;;20839;6761;117266;-74
2022/12/22 15:25:02;;;;;;;7.83;2.33;;;11.90;58.30;;;;;;20705;6769;117295;-72
2022/12/22 15:27:37;;;;;;;8.55;3.10;;;11.70;59.00;;;;;;20700;6744;276684;-74
2022/12/22 15:30:13;;;;;;;7.27;2.53;;;11.80;58.40;;;;;;20809;6764;120000;-73
2022/12/22 15:32:49;;;;;;;9.60;2.73;;;11.80;58.50;;;;;;20881;6752;119688;-73
2022/12/22 15:35:24;;;;;;;7.37;3.12;;;11.60;58.90;;;;;;20552;6746;308049;-73
2022/12/22 15:38:00;;;;;;;7.83;2.77;;;11.80;58.50;;;;;;20931;6737;117360;-75
2022/12/22 15:40:36;;;;;;;8.95;3.10;;;11.80;58.70;;;;;;20668;6752;277217;-76
2022/12/22 15:43:11;;;;;;;8.60;2.77;;;12.00;58.20;;;;;;20876;6738;117171;-73
2022/12/22 15:45:47;;;;;;;7.87;3.05;;;12.10;57.90;;;;;;20516;6752;294922;-74
2022/12/22 15:48:27;;;;;;;6.47;2.73;;;12.00;57.70;;;;;;20816;6768;117604;-75
2022/12/22 15:51:03;;;;;;;7.17;2.93;;;12.00;58.00;;;;;;20839;6761;124520;-73
2022/12/22 15:53:39;;;;;;;7.05;3.25;;;11.70;58.50;;;;;;20626;6761;306552;-73
2022/12/22 15:56:14;;;;;;;8.90;3.85;;;11.90;58.10;;;;;;20573;6777;279703;-73
2022/12/22 15:58:50;;;;;;;10.68;3.33;;;12.20;57.40;;;;;;20567;6777;312352;-74
2022/12/22 16:01:36;;;;;;;;;;;;;;;;;;;;;
2022/12/22 16:04:02;;;;;;;9.57;3.13;;;12.70;55.80;;;;;;20592;6747;331882;-73
2022/12/22 16:06:37;;;;;;;8.27;3.60;;;12.70;55.80;;;;;;20920;6737;118248;-74
2022/12/22 16:09:20;;;;;;;6.27;3.00;;;12.50;56.30;;;;;;20835;6752;117522;-74
2022/12/22 16:11:56;;;;;;;7.50;3.30;;;12.20;57.20;;;;;;20851;6752;118147;-78
2022/12/22 16:14:31;;;;;;;7.63;2.80;;;11.80;58.00;;;;;;20760;6767;118179;-75
2022/12/22 16:17:07;;;;;;;9.82;3.40;;;11.60;58.70;;;;;;20559;6775;308239;-75
2022/12/22 16:19:44;;;;;;;11.37;3.90;;;11.70;58.80;;;;;;20627;6757;310029;-74
2022/12/22 16:22:28;;;;;;;9.97;3.70;;;12.00;58.30;;;;;;20651;6752;306378;-77
2022/12/22 16:25:05;;;;;;;9.23;2.73;;;12.30;57.60;;;;;;20724;6767;127763;-77
2022/12/22 16:27:40;;;;;;;10.57;3.80;;;12.20;57.90;;;;;;20558;6779;307953;-73
2022/12/22 16:30:19;;;;;;;11.12;3.97;;;12.20;57.90;;;;;;20631;6770;309323;-72
2022/12/22 16:32:54;;;;;;;9.45;3.67;;;12.40;57.60;;;;;;20544;6787;278483;-70